sensor_id;sensor_type;location;lat;lon;timestamp;P1;durP1;ratioP1;P2;durP2;ratioP2
8938;SDS011;4504;48.810;9.172;2024-01-06T00:02:01;119.10;;;5.60;;
8938;SDS011;4504;48.810;9.172;2024-01-06T00:04:28;118.82;;;5.15;;
8938;SDS011;4504;48.810;9.172;2024-01-06T00:06:55;118.18;;;4.95;;
8938;SDS011;4504;48.810;9.172;2024-01-06T00:09:22;120.13;;;5.10;;
8938;SDS011;4504;48.810;9.172;2024-01-06T00:11:49;118.97;;;5.20;;
8938;SDS011;4504;48.810;9.172;2024-01-06T00:14:18;117.32;;;4.80;;
8938;SDS011;4504;48.810;9.172;2024-01-06T00:16:45;118.97;;;4.75;;
8938;SDS011;4504;48.810;9.172;2024-01-06T00:19:12;119.10;;;5.10;;
8938;SDS011;4504;48.810;9.172;2024-01-06T00:21:39;117.30;;;4.68;;
8938;SDS011;4504;48.810;9.172;2024-01-06T00:24:06;118.28;;;5.03;;
8938;SDS011;4504;48.810;9.172;2024-01-06T00:26:33;117.93;;;4.90;;
8938;SDS011;4504;48.810;9.172;2024-01-06T00:29:00;117.22;;;4.80;;
8938;SDS011;4504;48.810;9.172;2024-01-06T00:31:28;117.78;;;5.00;;
8938;SDS011;4504;48.810;9.172;2024-01-06T00:33:55;118.25;;;4.80;;
8938;SDS011;4504;48.810;9.172;2024-01-06T00:36:22;119.22;;;5.47;;
8938;SDS011;4504;48.810;9.172;2024-01-06T00:38:49;117.18;;;4.90;;
8938;SDS011;4504;48.810;9.172;2024-01-06T00:41:16;117.47;;;4.60;;
8938;SDS011;4504;48.810;9.172;2024-01-06T00:43:43;118.05;;;4.88;;
8938;SDS011;4504;48.810;9.172;2024-01-06T00:46:10;120.00;;;4.82;;
8938;SDS011;4504;48.810;9.172;2024-01-06T00:48:38;117.88;;;4.60;;
8938;SDS011;4504;48.810;9.172;2024-01-06T00:51:05;117.60;;;4.40;;
8938;SDS011;4504;48.810;9.172;2024-01-06T00:53:32;117.32;;;4.50;;
8938;SDS011;4504;48.810;9.172;2024-01-06T00:55:59;117.18;;;4.40;;
8938;SDS011;4504;48.810;9.172;2024-01-06T00:58:26;117.53;;;4.82;;
8938;SDS011;4504;48.810;9.172;2024-01-06T01:00:53;115.57;;;4.45;;
8938;SDS011;4504;48.810;9.172;2024-01-06T01:03:20;116.97;;;4.60;;
8938;SDS011;4504;48.810;9.172;2024-01-06T01:05:49;117.28;;;4.40;;
8938;SDS011;4504;48.810;9.172;2024-01-06T01:08:16;115.13;;;4.30;;
8938;SDS011;4504;48.810;9.172;2024-01-06T01:10:43;118.40;;;5.40;;
8938;SDS011;4504;48.810;9.172;2024-01-06T01:13:10;116.97;;;4.10;;
8938;SDS011;4504;48.810;9.172;2024-01-06T01:15:37;116.82;;;4.78;;
8938;SDS011;4504;48.810;9.172;2024-01-06T01:18:04;125.38;;;4.80;;
8938;SDS011;4504;48.810;9.172;2024-01-06T01:20:31;118.10;;;4.35;;
8938;SDS011;4504;48.810;9.172;2024-01-06T01:22:59;118.97;;;4.93;;
8938;SDS011;4504;48.810;9.172;2024-01-06T01:25:26;119.07;;;4.90;;
8938;SDS011;4504;48.810;9.172;2024-01-06T01:27:53;117.55;;;4.43;;
8938;SDS011;4504;48.810;9.172;2024-01-06T01:30:20;117.68;;;4.63;;
8938;SDS011;4504;48.810;9.172;2024-01-06T01:32:47;117.82;;;4.65;;
8938;SDS011;4504;48.810;9.172;2024-01-06T01:35:14;118.47;;;4.70;;
8938;SDS011;4504;48.810;9.172;2024-01-06T01:37:41;118.07;;;4.45;;
8938;SDS011;4504;48.810;9.172;2024-01-06T01:40:10;118.68;;;5.00;;
8938;SDS011;4504;48.810;9.172;2024-01-06T01:42:37;117.43;;;4.40;;
8938;SDS011;4504;48.810;9.172;2024-01-06T01:45:04;116.85;;;4.30;;
8938;SDS011;4504;48.810;9.172;2024-01-06T01:47:31;117.63;;;4.35;;
8938;SDS011;4504;48.810;9.172;2024-01-06T01:49:59;116.60;;;4.30;;
8938;SDS011;4504;48.810;9.172;2024-01-06T01:52:27;120.43;;;4.40;;
8938;SDS011;4504;48.810;9.172;2024-01-06T01:54:54;117.68;;;4.70;;
8938;SDS011;4504;48.810;9.172;2024-01-06T01:57:23;116.53;;;4.50;;
8938;SDS011;4504;48.810;9.172;2024-01-06T01:59:52;115.80;;;4.40;;
8938;SDS011;4504;48.810;9.172;2024-01-06T02:02:20;117.43;;;4.75;;
8938;SDS011;4504;48.810;9.172;2024-01-06T02:04:47;126.07;;;4.70;;
8938;SDS011;4504;48.810;9.172;2024-01-06T02:07:15;117.80;;;4.25;;
8938;SDS011;4504;48.810;9.172;2024-01-06T02:09:42;117.65;;;4.20;;
8938;SDS011;4504;48.810;9.172;2024-01-06T02:12:09;119.97;;;5.15;;
8938;SDS011;4504;48.810;9.172;2024-01-06T02:14:37;118.28;;;4.50;;
8938;SDS011;4504;48.810;9.172;2024-01-06T02:17:04;117.30;;;4.28;;
8938;SDS011;4504;48.810;9.172;2024-01-06T02:19:31;117.75;;;4.40;;
8938;SDS011;4504;48.810;9.172;2024-01-06T02:21:59;117.18;;;4.40;;
8938;SDS011;4504;48.810;9.172;2024-01-06T02:24:26;116.82;;;4.22;;
8938;SDS011;4504;48.810;9.172;2024-01-06T02:26:53;117.75;;;4.45;;
8938;SDS011;4504;48.810;9.172;2024-01-06T02:29:20;117.22;;;4.38;;
8938;SDS011;4504;48.810;9.172;2024-01-06T02:31:47;117.32;;;4.40;;
8938;SDS011;4504;48.810;9.172;2024-01-06T02:34:14;123.40;;;5.03;;
8938;SDS011;4504;48.810;9.172;2024-01-06T02:36:41;116.70;;;4.25;;
8938;SDS011;4504;48.810;9.172;2024-01-06T02:39:10;115.40;;;4.30;;
8938;SDS011;4504;48.810;9.172;2024-01-06T02:41:37;117.43;;;4.45;;
8938;SDS011;4504;48.810;9.172;2024-01-06T02:44:04;117.93;;;4.50;;
8938;SDS011;4504;48.810;9.172;2024-01-06T02:46:31;116.95;;;4.30;;
8938;SDS011;4504;48.810;9.172;2024-01-06T02:48:58;119.32;;;4.78;;
8938;SDS011;4504;48.810;9.172;2024-01-06T02:51:25;117.30;;;4.43;;
8938;SDS011;4504;48.810;9.172;2024-01-06T02:53:52;118.47;;;4.80;;
8938;SDS011;4504;48.810;9.172;2024-01-06T02:56:20;117.20;;;4.82;;
8938;SDS011;4504;48.810;9.172;2024-01-06T02:58:47;118.75;;;4.50;;
8938;SDS011;4504;48.810;9.172;2024-01-06T03:01:14;117.68;;;4.22;;
8938;SDS011;4504;48.810;9.172;2024-01-06T03:03:41;118.50;;;4.95;;
8938;SDS011;4504;48.810;9.172;2024-01-06T03:06:08;120.72;;;4.75;;
8938;SDS011;4504;48.810;9.172;2024-01-06T03:08:35;117.53;;;4.57;;
8938;SDS011;4504;48.810;9.172;2024-01-06T03:11:02;119.80;;;5.50;;
8938;SDS011;4504;48.810;9.172;2024-01-06T03:13:32;116.82;;;4.30;;
8938;SDS011;4504;48.810;9.172;2024-01-06T03:16:01;117.93;;;4.82;;
8938;SDS011;4504;48.810;9.172;2024-01-06T03:18:29;118.57;;;4.50;;
8938;SDS011;4504;48.810;9.172;2024-01-06T03:20:56;117.28;;;4.40;;
8938;SDS011;4504;48.810;9.172;2024-01-06T03:23:23;123.10;;;5.07;;
8938;SDS011;4504;48.810;9.172;2024-01-06T03:25:50;117.78;;;5.28;;
8938;SDS011;4504;48.810;9.172;2024-01-06T03:28:17;120.72;;;4.88;;
8938;SDS011;4504;48.810;9.172;2024-01-06T03:30:46;118.15;;;4.50;;
8938;SDS011;4504;48.810;9.172;2024-01-06T03:33:13;117.05;;;4.25;;
8938;SDS011;4504;48.810;9.172;2024-01-06T03:35:40;117.38;;;4.85;;
8938;SDS011;4504;48.810;9.172;2024-01-06T03:38:07;117.03;;;4.40;;
8938;SDS011;4504;48.810;9.172;2024-01-06T03:40:34;117.57;;;4.22;;
8938;SDS011;4504;48.810;9.172;2024-01-06T03:43:01;117.57;;;4.50;;
8938;SDS011;4504;48.810;9.172;2024-01-06T03:45:28;117.03;;;4.82;;
8938;SDS011;4504;48.810;9.172;2024-01-06T03:47:56;125.55;;;4.93;;
8938;SDS011;4504;48.810;9.172;2024-01-06T03:50:23;118.38;;;4.40;;
8938;SDS011;4504;48.810;9.172;2024-01-06T03:52:50;116.32;;;4.47;;
8938;SDS011;4504;48.810;9.172;2024-01-06T03:55:17;116.32;;;4.55;;
8938;SDS011;4504;48.810;9.172;2024-01-06T03:57:44;118.07;;;4.95;;
8938;SDS011;4504;48.810;9.172;2024-01-06T04:00:11;115.78;;;4.47;;
8938;SDS011;4504;48.810;9.172;2024-01-06T04:02:39;118.00;;;5.00;;
8938;SDS011;4504;48.810;9.172;2024-01-06T04:05:07;117.88;;;4.40;;
8938;SDS011;4504;48.810;9.172;2024-01-06T04:07:34;119.47;;;4.53;;
8938;SDS011;4504;48.810;9.172;2024-01-06T04:10:01;116.45;;;4.70;;
8938;SDS011;4504;48.810;9.172;2024-01-06T04:12:28;119.47;;;6.95;;
8938;SDS011;4504;48.810;9.172;2024-01-06T04:14:55;117.40;;;4.50;;
8938;SDS011;4504;48.810;9.172;2024-01-06T04:17:22;116.72;;;4.30;;
8938;SDS011;4504;48.810;9.172;2024-01-06T04:19:51;117.30;;;4.55;;
8938;SDS011;4504;48.810;9.172;2024-01-06T04:22:19;116.93;;;4.40;;
8938;SDS011;4504;48.810;9.172;2024-01-06T04:24:46;117.07;;;4.20;;
8938;SDS011;4504;48.810;9.172;2024-01-06T04:27:13;122.65;;;4.60;;
8938;SDS011;4504;48.810;9.172;2024-01-06T04:29:40;122.60;;;4.60;;
8938;SDS011;4504;48.810;9.172;2024-01-06T04:32:07;117.68;;;4.15;;
8938;SDS011;4504;48.810;9.172;2024-01-06T04:34:34;116.72;;;4.20;;
8938;SDS011;4504;48.810;9.172;2024-01-06T04:37:01;116.88;;;4.10;;
8938;SDS011;4504;48.810;9.172;2024-01-06T04:39:30;117.57;;;4.20;;
8938;SDS011;4504;48.810;9.172;2024-01-06T04:41:57;117.68;;;4.30;;
8938;SDS011;4504;48.810;9.172;2024-01-06T04:44:23;117.22;;;4.32;;
8938;SDS011;4504;48.810;9.172;2024-01-06T04:46:50;115.78;;;4.55;;
8938;SDS011;4504;48.810;9.172;2024-01-06T04:49:17;117.38;;;4.35;;
8938;SDS011;4504;48.810;9.172;2024-01-06T04:51:44;117.03;;;4.10;;
8938;SDS011;4504;48.810;9.172;2024-01-06T04:54:11;117.13;;;4.40;;
8938;SDS011;4504;48.810;9.172;2024-01-06T04:56:40;117.82;;;4.93;;
8938;SDS011;4504;48.810;9.172;2024-01-06T04:59:06;118.05;;;4.45;;
8938;SDS011;4504;48.810;9.172;2024-01-06T05:01:33;119.75;;;4.78;;
8938;SDS011;4504;48.810;9.172;2024-01-06T05:04:00;116.10;;;4.50;;
8938;SDS011;4504;48.810;9.172;2024-01-06T05:06:28;117.50;;;4.40;;
8938;SDS011;4504;48.810;9.172;2024-01-06T05:08:55;117.38;;;4.72;;
8938;SDS011;4504;48.810;9.172;2024-01-06T05:11:22;118.28;;;4.90;;
8938;SDS011;4504;48.810;9.172;2024-01-06T05:13:50;117.90;;;4.30;;
8938;SDS011;4504;48.810;9.172;2024-01-06T05:16:17;115.70;;;4.50;;
8938;SDS011;4504;48.810;9.172;2024-01-06T05:18:44;116.53;;;4.40;;
8938;SDS011;4504;48.810;9.172;2024-01-06T05:21:11;119.95;;;4.60;;
8938;SDS011;4504;48.810;9.172;2024-01-06T05:23:38;117.57;;;4.78;;
8938;SDS011;4504;48.810;9.172;2024-01-06T05:26:05;117.07;;;4.72;;
8938;SDS011;4504;48.810;9.172;2024-01-06T05:28:32;117.53;;;4.38;;
8938;SDS011;4504;48.810;9.172;2024-01-06T05:31:01;117.47;;;4.50;;
8938;SDS011;4504;48.810;9.172;2024-01-06T05:33:28;125.10;;;4.60;;
8938;SDS011;4504;48.810;9.172;2024-01-06T05:35:55;117.75;;;4.43;;
8938;SDS011;4504;48.810;9.172;2024-01-06T05:38:22;117.53;;;4.40;;
8938;SDS011;4504;48.810;9.172;2024-01-06T05:40:49;117.85;;;4.75;;
8938;SDS011;4504;48.810;9.172;2024-01-06T05:43:16;118.70;;;4.70;;
8938;SDS011;4504;48.810;9.172;2024-01-06T05:45:43;116.72;;;4.50;;
8938;SDS011;4504;48.810;9.172;2024-01-06T05:48:12;117.95;;;4.53;;
8938;SDS011;4504;48.810;9.172;2024-01-06T05:50:39;118.28;;;4.82;;
8938;SDS011;4504;48.810;9.172;2024-01-06T05:53:06;116.03;;;4.63;;
8938;SDS011;4504;48.810;9.172;2024-01-06T05:55:34;117.78;;;4.40;;
8938;SDS011;4504;48.810;9.172;2024-01-06T05:58:01;116.88;;;4.50;;
8938;SDS011;4504;48.810;9.172;2024-01-06T06:00:28;116.72;;;4.30;;
8938;SDS011;4504;48.810;9.172;2024-01-06T06:02:56;117.32;;;4.80;;
8938;SDS011;4504;48.810;9.172;2024-01-06T06:05:25;118.20;;;4.38;;
8938;SDS011;4504;48.810;9.172;2024-01-06T06:07:52;118.30;;;4.70;;
8938;SDS011;4504;48.810;9.172;2024-01-06T06:10:19;118.05;;;4.40;;
8938;SDS011;4504;48.810;9.172;2024-01-06T06:12:47;117.88;;;4.88;;
8938;SDS011;4504;48.810;9.172;2024-01-06T06:15:14;116.88;;;4.25;;
8938;SDS011;4504;48.810;9.172;2024-01-06T06:17:41;117.78;;;4.30;;
8938;SDS011;4504;48.810;9.172;2024-01-06T06:20:08;117.15;;;4.50;;
8938;SDS011;4504;48.810;9.172;2024-01-06T06:22:37;117.18;;;4.47;;
8938;SDS011;4504;48.810;9.172;2024-01-06T06:25:04;117.18;;;4.50;;
8938;SDS011;4504;48.810;9.172;2024-01-06T06:27:32;116.70;;;4.90;;
8938;SDS011;4504;48.810;9.172;2024-01-06T06:30:00;118.88;;;4.90;;
8938;SDS011;4504;48.810;9.172;2024-01-06T06:32:27;117.68;;;4.70;;
8938;SDS011;4504;48.810;9.172;2024-01-06T06:34:54;116.55;;;4.35;;
8938;SDS011;4504;48.810;9.172;2024-01-06T06:37:21;116.43;;;4.65;;
8938;SDS011;4504;48.810;9.172;2024-01-06T06:39:50;117.63;;;4.25;;
8938;SDS011;4504;48.810;9.172;2024-01-06T06:42:17;117.50;;;4.20;;
8938;SDS011;4504;48.810;9.172;2024-01-06T06:44:43;116.20;;;4.20;;
8938;SDS011;4504;48.810;9.172;2024-01-06T06:47:10;118.18;;;4.45;;
8938;SDS011;4504;48.810;9.172;2024-01-06T06:49:38;117.78;;;4.50;;
8938;SDS011;4504;48.810;9.172;2024-01-06T06:52:05;117.18;;;4.70;;
8938;SDS011;4504;48.810;9.172;2024-01-06T06:54:32;117.63;;;4.38;;
8938;SDS011;4504;48.810;9.172;2024-01-06T06:57:00;128.95;;;5.70;;
8938;SDS011;4504;48.810;9.172;2024-01-06T06:59:28;117.72;;;4.50;;
8938;SDS011;4504;48.810;9.172;2024-01-06T07:01:56;117.68;;;4.40;;
8938;SDS011;4504;48.810;9.172;2024-01-06T07:04:23;118.28;;;4.28;;
8938;SDS011;4504;48.810;9.172;2024-01-06T07:06:51;117.50;;;4.47;;
8938;SDS011;4504;48.810;9.172;2024-01-06T07:09:18;118.07;;;4.55;;
8938;SDS011;4504;48.810;9.172;2024-01-06T07:11:48;116.22;;;4.22;;
8938;SDS011;4504;48.810;9.172;2024-01-06T07:14:16;119.53;;;5.25;;
8938;SDS011;4504;48.810;9.172;2024-01-06T07:16:43;118.38;;;4.80;;
8938;SDS011;4504;48.810;9.172;2024-01-06T07:19:10;117.78;;;4.30;;
8938;SDS011;4504;48.810;9.172;2024-01-06T07:21:37;117.57;;;4.40;;
8938;SDS011;4504;48.810;9.172;2024-01-06T07:24:05;119.63;;;4.88;;
8938;SDS011;4504;48.810;9.172;2024-01-06T07:26:32;120.43;;;5.60;;
8938;SDS011;4504;48.810;9.172;2024-01-06T07:28:59;117.03;;;4.55;;
8938;SDS011;4504;48.810;9.172;2024-01-06T07:31:27;117.32;;;4.47;;
8938;SDS011;4504;48.810;9.172;2024-01-06T07:33:54;115.47;;;4.47;;
8938;SDS011;4504;48.810;9.172;2024-01-06T07:36:21;117.80;;;4.40;;
8938;SDS011;4504;48.810;9.172;2024-01-06T07:38:48;115.88;;;4.30;;
8938;SDS011;4504;48.810;9.172;2024-01-06T07:41:15;118.75;;;4.43;;
8938;SDS011;4504;48.810;9.172;2024-01-06T07:43:42;118.72;;;4.53;;
8938;SDS011;4504;48.810;9.172;2024-01-06T07:46:09;119.07;;;4.55;;
8938;SDS011;4504;48.810;9.172;2024-01-06T07:48:37;118.20;;;5.00;;
8938;SDS011;4504;48.810;9.172;2024-01-06T07:51:04;117.15;;;4.40;;
8938;SDS011;4504;48.810;9.172;2024-01-06T07:53:31;117.63;;;4.57;;
8938;SDS011;4504;48.810;9.172;2024-01-06T07:55:58;119.60;;;6.07;;
8938;SDS011;4504;48.810;9.172;2024-01-06T07:58:25;116.93;;;4.50;;
8938;SDS011;4504;48.810;9.172;2024-01-06T08:00:53;118.72;;;4.50;;
8938;SDS011;4504;48.810;9.172;2024-01-06T08:03:20;117.07;;;4.30;;
8938;SDS011;4504;48.810;9.172;2024-01-06T08:05:49;118.03;;;4.50;;
8938;SDS011;4504;48.810;9.172;2024-01-06T08:08:16;116.68;;;4.32;;
8938;SDS011;4504;48.810;9.172;2024-01-06T08:10:44;117.55;;;4.65;;
8938;SDS011;4504;48.810;9.172;2024-01-06T08:13:11;118.38;;;5.68;;
8938;SDS011;4504;48.810;9.172;2024-01-06T08:15:38;117.85;;;4.40;;
8938;SDS011;4504;48.810;9.172;2024-01-06T08:18:05;119.13;;;4.20;;
8938;SDS011;4504;48.810;9.172;2024-01-06T08:20:32;118.72;;;4.10;;
8938;SDS011;4504;48.810;9.172;2024-01-06T08:23:01;118.63;;;4.40;;
8938;SDS011;4504;48.810;9.172;2024-01-06T08:25:28;118.05;;;4.40;;
8938;SDS011;4504;48.810;9.172;2024-01-06T08:27:55;116.97;;;4.35;;
8938;SDS011;4504;48.810;9.172;2024-01-06T08:30:22;116.10;;;4.40;;
8938;SDS011;4504;48.810;9.172;2024-01-06T08:32:49;116.88;;;4.30;;
8938;SDS011;4504;48.810;9.172;2024-01-06T08:35:17;116.43;;;3.97;;
8938;SDS011;4504;48.810;9.172;2024-01-06T08:37:44;117.50;;;4.30;;
8938;SDS011;4504;48.810;9.172;2024-01-06T08:40:13;117.45;;;4.20;;
8938;SDS011;4504;48.810;9.172;2024-01-06T08:42:40;116.97;;;4.40;;
8938;SDS011;4504;48.810;9.172;2024-01-06T08:45:09;117.07;;;4.07;;
8938;SDS011;4504;48.810;9.172;2024-01-06T08:47:36;117.28;;;4.43;;
8938;SDS011;4504;48.810;9.172;2024-01-06T08:50:04;116.78;;;4.50;;
8938;SDS011;4504;48.810;9.172;2024-01-06T08:52:31;114.38;;;4.55;;
8938;SDS011;4504;48.810;9.172;2024-01-06T08:54:58;117.20;;;5.00;;
8938;SDS011;4504;48.810;9.172;2024-01-06T08:57:26;119.57;;;4.60;;
8938;SDS011;4504;48.810;9.172;2024-01-06T08:59:53;117.43;;;4.15;;
8938;SDS011;4504;48.810;9.172;2024-01-06T09:02:20;118.43;;;4.90;;
8938;SDS011;4504;48.810;9.172;2024-01-06T09:04:47;117.50;;;4.70;;
8938;SDS011;4504;48.810;9.172;2024-01-06T09:07:14;118.97;;;4.50;;
8938;SDS011;4504;48.810;9.172;2024-01-06T09:09:42;117.65;;;4.30;;
8938;SDS011;4504;48.810;9.172;2024-01-06T09:12:10;117.47;;;4.28;;
8938;SDS011;4504;48.810;9.172;2024-01-06T09:14:38;118.25;;;4.50;;
8938;SDS011;4504;48.810;9.172;2024-01-06T09:17:06;116.13;;;4.45;;
8938;SDS011;4504;48.810;9.172;2024-01-06T09:19:33;117.57;;;4.40;;
8938;SDS011;4504;48.810;9.172;2024-01-06T09:22:00;116.93;;;4.60;;
8938;SDS011;4504;48.810;9.172;2024-01-06T09:24:27;118.97;;;4.60;;
8938;SDS011;4504;48.810;9.172;2024-01-06T09:26:54;117.40;;;4.50;;
8938;SDS011;4504;48.810;9.172;2024-01-06T09:29:21;119.13;;;4.60;;
8938;SDS011;4504;48.810;9.172;2024-01-06T09:31:49;118.55;;;4.70;;
8938;SDS011;4504;48.810;9.172;2024-01-06T09:34:17;117.57;;;4.32;;
8938;SDS011;4504;48.810;9.172;2024-01-06T09:36:44;117.53;;;4.50;;
8938;SDS011;4504;48.810;9.172;2024-01-06T09:39:11;117.80;;;4.82;;
8938;SDS011;4504;48.810;9.172;2024-01-06T09:41:38;117.93;;;4.40;;
8938;SDS011;4504;48.810;9.172;2024-01-06T09:44:05;117.80;;;4.55;;
8938;SDS011;4504;48.810;9.172;2024-01-06T09:46:32;117.28;;;4.30;;
8938;SDS011;4504;48.810;9.172;2024-01-06T09:49:02;116.90;;;4.53;;
8938;SDS011;4504;48.810;9.172;2024-01-06T09:51:29;117.53;;;4.47;;
8938;SDS011;4504;48.810;9.172;2024-01-06T09:53:57;117.28;;;4.40;;
8938;SDS011;4504;48.810;9.172;2024-01-06T09:56:25;119.13;;;4.60;;
8938;SDS011;4504;48.810;9.172;2024-01-06T09:58:53;117.65;;;4.40;;
8938;SDS011;4504;48.810;9.172;2024-01-06T10:01:21;116.72;;;4.38;;
8938;SDS011;4504;48.810;9.172;2024-01-06T10:03:48;119.43;;;4.60;;
8938;SDS011;4504;48.810;9.172;2024-01-06T10:06:16;117.55;;;4.55;;
8938;SDS011;4504;48.810;9.172;2024-01-06T10:08:44;117.43;;;4.50;;
8938;SDS011;4504;48.810;9.172;2024-01-06T10:11:11;117.28;;;4.55;;
8938;SDS011;4504;48.810;9.172;2024-01-06T10:13:39;117.65;;;4.50;;
8938;SDS011;4504;48.810;9.172;2024-01-06T10:16:06;118.00;;;4.40;;
8938;SDS011;4504;48.810;9.172;2024-01-06T10:18:34;117.82;;;4.60;;
8938;SDS011;4504;48.810;9.172;2024-01-06T10:21:02;117.28;;;4.40;;
8938;SDS011;4504;48.810;9.172;2024-01-06T10:23:33;118.85;;;4.70;;
8938;SDS011;4504;48.810;9.172;2024-01-06T10:26:05;117.97;;;4.60;;
8938;SDS011;4504;48.810;9.172;2024-01-06T10:28:32;117.45;;;4.60;;
8938;SDS011;4504;48.810;9.172;2024-01-06T10:30:59;117.03;;;4.60;;
8938;SDS011;4504;48.810;9.172;2024-01-06T10:33:26;116.20;;;4.50;;
8938;SDS011;4504;48.810;9.172;2024-01-06T10:35:53;117.35;;;4.32;;
8938;SDS011;4504;48.810;9.172;2024-01-06T10:38:21;117.68;;;4.60;;
8938;SDS011;4504;48.810;9.172;2024-01-06T10:40:59;117.32;;;4.20;;
8938;SDS011;4504;48.810;9.172;2024-01-06T10:43:32;117.03;;;4.30;;
8938;SDS011;4504;48.810;9.172;2024-01-06T10:46:03;117.32;;;4.40;;
8938;SDS011;4504;48.810;9.172;2024-01-06T10:48:31;118.10;;;4.60;;
8938;SDS011;4504;48.810;9.172;2024-01-06T10:50:59;117.78;;;4.40;;
8938;SDS011;4504;48.810;9.172;2024-01-06T10:53:27;117.45;;;4.40;;
8938;SDS011;4504;48.810;9.172;2024-01-06T10:55:55;118.53;;;4.70;;
8938;SDS011;4504;48.810;9.172;2024-01-06T10:58:25;117.28;;;4.40;;
8938;SDS011;4504;48.810;9.172;2024-01-06T11:00:55;117.05;;;4.80;;
8938;SDS011;4504;48.810;9.172;2024-01-06T11:03:22;118.10;;;4.38;;
8938;SDS011;4504;48.810;9.172;2024-01-06T11:05:50;116.97;;;4.70;;
8938;SDS011;4504;48.810;9.172;2024-01-06T11:08:17;116.53;;;4.20;;
8938;SDS011;4504;48.810;9.172;2024-01-06T11:11:52;117.85;;;4.43;;
8938;SDS011;4504;48.810;9.172;2024-01-06T11:14:21;117.28;;;4.30;;
8938;SDS011;4504;48.810;9.172;2024-01-06T11:16:49;117.75;;;4.40;;
8938;SDS011;4504;48.810;9.172;2024-01-06T11:22:24;117.78;;;4.57;;
8938;SDS011;4504;48.810;9.172;2024-01-06T11:24:54;118.47;;;4.60;;
8938;SDS011;4504;48.810;9.172;2024-01-06T11:27:24;118.72;;;4.82;;
8938;SDS011;4504;48.810;9.172;2024-01-06T11:29:53;118.03;;;4.50;;
8938;SDS011;4504;48.810;9.172;2024-01-06T11:32:28;118.47;;;5.40;;
8938;SDS011;4504;48.810;9.172;2024-01-06T11:35:04;118.25;;;5.00;;
8938;SDS011;4504;48.810;9.172;2024-01-06T11:37:37;117.65;;;4.90;;
8938;SDS011;4504;48.810;9.172;2024-01-06T11:40:22;118.03;;;4.90;;
8938;SDS011;4504;48.810;9.172;2024-01-06T11:42:59;118.10;;;4.95;;
8938;SDS011;4504;48.810;9.172;2024-01-06T11:45:28;116.63;;;4.47;;
8938;SDS011;4504;48.810;9.172;2024-01-06T11:47:56;118.40;;;5.10;;
8938;SDS011;4504;48.810;9.172;2024-01-06T11:50:25;116.50;;;4.70;;
8938;SDS011;4504;48.810;9.172;2024-01-06T11:52:52;117.78;;;5.78;;
8938;SDS011;4504;48.810;9.172;2024-01-06T11:55:20;119.57;;;5.15;;
8938;SDS011;4504;48.810;9.172;2024-01-06T11:57:47;117.72;;;4.80;;
8938;SDS011;4504;48.810;9.172;2024-01-06T12:00:16;117.05;;;4.80;;
8938;SDS011;4504;48.810;9.172;2024-01-06T12:02:44;118.60;;;5.13;;
8938;SDS011;4504;48.810;9.172;2024-01-06T12:05:14;118.35;;;4.88;;
8938;SDS011;4504;48.810;9.172;2024-01-06T12:07:43;117.90;;;4.60;;
8938;SDS011;4504;48.810;9.172;2024-01-06T12:10:10;117.75;;;4.90;;
8938;SDS011;4504;48.810;9.172;2024-01-06T12:12:39;116.93;;;4.47;;
8938;SDS011;4504;48.810;9.172;2024-01-06T12:15:06;118.40;;;5.10;;
8938;SDS011;4504;48.810;9.172;2024-01-06T12:17:38;117.47;;;4.60;;
8938;SDS011;4504;48.810;9.172;2024-01-06T12:20:07;121.72;;;5.03;;
8938;SDS011;4504;48.810;9.172;2024-01-06T12:22:35;117.82;;;5.20;;
8938;SDS011;4504;48.810;9.172;2024-01-06T12:25:02;118.88;;;5.13;;
8938;SDS011;4504;48.810;9.172;2024-01-06T12:27:32;117.43;;;4.70;;
8938;SDS011;4504;48.810;9.172;2024-01-06T12:29:59;117.05;;;4.70;;
8938;SDS011;4504;48.810;9.172;2024-01-06T12:32:26;117.55;;;4.72;;
8938;SDS011;4504;48.810;9.172;2024-01-06T12:34:54;117.57;;;4.60;;
8938;SDS011;4504;48.810;9.172;2024-01-06T12:37:22;118.72;;;5.00;;
8938;SDS011;4504;48.810;9.172;2024-01-06T12:39:49;118.15;;;5.10;;
8938;SDS011;4504;48.810;9.172;2024-01-06T12:42:17;117.32;;;4.85;;
8938;SDS011;4504;48.810;9.172;2024-01-06T12:44:45;117.85;;;4.72;;
8938;SDS011;4504;48.810;9.172;2024-01-06T12:47:12;118.53;;;4.80;;
8938;SDS011;4504;48.810;9.172;2024-01-06T12:49:39;117.68;;;4.63;;
8938;SDS011;4504;48.810;9.172;2024-01-06T12:52:07;116.25;;;4.60;;
8938;SDS011;4504;48.810;9.172;2024-01-06T12:54:34;117.07;;;4.55;;
8938;SDS011;4504;48.810;9.172;2024-01-06T12:57:01;116.03;;;4.93;;
8938;SDS011;4504;48.810;9.172;2024-01-06T12:59:28;117.50;;;5.25;;
8938;SDS011;4504;48.810;9.172;2024-01-06T13:01:56;118.38;;;5.50;;
8938;SDS011;4504;48.810;9.172;2024-01-06T13:04:23;117.07;;;4.70;;
8938;SDS011;4504;48.810;9.172;2024-01-06T13:06:50;116.68;;;5.25;;
8938;SDS011;4504;48.810;9.172;2024-01-06T13:09:18;119.55;;;5.60;;
8938;SDS011;4504;48.810;9.172;2024-01-06T13:11:48;118.88;;;5.10;;
8938;SDS011;4504;48.810;9.172;2024-01-06T13:14:16;118.22;;;5.00;;
8938;SDS011;4504;48.810;9.172;2024-01-06T13:16:43;118.13;;;5.20;;
8938;SDS011;4504;48.810;9.172;2024-01-06T13:19:10;119.45;;;5.43;;
8938;SDS011;4504;48.810;9.172;2024-01-06T13:21:37;116.53;;;4.90;;
8938;SDS011;4504;48.810;9.172;2024-01-06T13:24:05;118.43;;;4.85;;
8938;SDS011;4504;48.810;9.172;2024-01-06T13:26:34;117.43;;;4.78;;
8938;SDS011;4504;48.810;9.172;2024-01-06T13:29:01;119.43;;;5.82;;
8938;SDS011;4504;48.810;9.172;2024-01-06T13:31:28;118.18;;;5.32;;
8938;SDS011;4504;48.810;9.172;2024-01-06T13:33:56;117.45;;;5.30;;
8938;SDS011;4504;48.810;9.172;2024-01-06T13:36:23;117.03;;;5.25;;
8938;SDS011;4504;48.810;9.172;2024-01-06T13:38:50;119.53;;;5.35;;
8938;SDS011;4504;48.810;9.172;2024-01-06T13:41:17;119.97;;;5.55;;
8938;SDS011;4504;48.810;9.172;2024-01-06T13:43:45;118.15;;;5.20;;
8938;SDS011;4504;48.810;9.172;2024-01-06T13:46:13;116.25;;;4.88;;
8938;SDS011;4504;48.810;9.172;2024-01-06T13:48:40;118.47;;;5.60;;
8938;SDS011;4504;48.810;9.172;2024-01-06T13:51:07;117.32;;;5.07;;
8938;SDS011;4504;48.810;9.172;2024-01-06T13:53:34;119.03;;;5.88;;
8938;SDS011;4504;48.810;9.172;2024-01-06T13:56:01;118.13;;;5.35;;
8938;SDS011;4504;48.810;9.172;2024-01-06T13:58:29;119.70;;;6.00;;
8938;SDS011;4504;48.810;9.172;2024-01-06T14:00:57;118.03;;;5.30;;
8938;SDS011;4504;48.810;9.172;2024-01-06T14:03:24;119.55;;;5.80;;
8938;SDS011;4504;48.810;9.172;2024-01-06T14:05:51;119.97;;;5.50;;
8938;SDS011;4504;48.810;9.172;2024-01-06T14:08:19;117.55;;;5.80;;
8938;SDS011;4504;48.810;9.172;2024-01-06T14:10:46;117.82;;;5.65;;
8938;SDS011;4504;48.810;9.172;2024-01-06T14:13:13;118.97;;;6.50;;
8938;SDS011;4504;48.810;9.172;2024-01-06T14:15:40;118.78;;;5.40;;
8938;SDS011;4504;48.810;9.172;2024-01-06T14:18:08;118.95;;;5.30;;
8938;SDS011;4504;48.810;9.172;2024-01-06T14:20:36;121.10;;;6.45;;
8938;SDS011;4504;48.810;9.172;2024-01-06T14:23:03;119.18;;;5.72;;
8938;SDS011;4504;48.810;9.172;2024-01-06T14:25:30;118.50;;;5.82;;
8938;SDS011;4504;48.810;9.172;2024-01-06T14:27:57;119.30;;;5.75;;
8938;SDS011;4504;48.810;9.172;2024-01-06T14:30:24;122.93;;;7.28;;
8938;SDS011;4504;48.810;9.172;2024-01-06T14:32:51;122.40;;;7.50;;
8938;SDS011;4504;48.810;9.172;2024-01-06T14:35:20;121.68;;;6.55;;
8938;SDS011;4504;48.810;9.172;2024-01-06T14:37:47;124.30;;;6.95;;
8938;SDS011;4504;48.810;9.172;2024-01-06T14:40:14;122.57;;;7.57;;
8938;SDS011;4504;48.810;9.172;2024-01-06T14:42:42;123.10;;;6.45;;
8938;SDS011;4504;48.810;9.172;2024-01-06T14:45:09;123.05;;;7.05;;
8938;SDS011;4504;48.810;9.172;2024-01-06T14:47:36;123.53;;;7.65;;
8938;SDS011;4504;48.810;9.172;2024-01-06T14:50:03;122.35;;;7.05;;
8938;SDS011;4504;48.810;9.172;2024-01-06T14:52:32;122.57;;;6.85;;
8938;SDS011;4504;48.810;9.172;2024-01-06T14:54:59;123.85;;;8.07;;